createdAt,value
2022-08-07T00:00:05.603Z,0.56
2022-08-07T00:03:05.591Z,0.56
2022-08-07T00:06:05.634Z,0.57
2022-08-07T00:09:07.891Z,0.37
2022-08-07T00:12:05.604Z,0.51
2022-08-07T00:15:05.615Z,0.46
2022-08-07T00:18:05.592Z,0.68
2022-08-07T00:21:08.075Z,0.61
2022-08-07T00:24:05.642Z,0.51
2022-08-07T00:27:06.573Z,0.54
2022-08-07T00:30:05.639Z,0.49
2022-08-07T00:33:05.614Z,0.65
2022-08-07T00:36:05.648Z,0.42
2022-08-07T00:39:05.656Z,0.51
2022-08-07T00:42:05.657Z,0.55
2022-08-07T00:45:06.936Z,0.31
2022-08-07T00:48:08.516Z,0.46
2022-08-07T00:51:05.660Z,0.4
2022-08-07T00:54:05.656Z,0.43
2022-08-07T00:57:05.676Z,0.41
2022-08-07T01:00:05.657Z,0.26
2022-08-07T01:03:05.639Z,0.22
2022-08-07T01:06:05.670Z,0.17
2022-08-07T01:09:05.655Z,0.32
2022-08-07T01:12:26.574Z,0.13
2022-08-07T01:15:05.666Z,0.08
2022-08-07T01:18:05.653Z,0.25
2022-08-07T01:21:05.689Z,0.13
2022-08-07T01:24:05.655Z,0.08
2022-08-07T01:27:05.670Z,0.21
2022-08-07T01:30:05.661Z,0.26
2022-08-07T01:33:05.722Z,0.28
2022-08-07T01:36:06.084Z,0.28
2022-08-07T01:39:09.412Z,0.28
2022-08-07T01:42:07.792Z,0.22
2022-08-07T01:45:09.945Z,0.39
2022-08-07T01:48:18.657Z,0.3
2022-08-07T01:51:08.328Z,0.32
2022-08-07T01:54:09.863Z,0.17
2022-08-07T01:57:05.721Z,0.34
2022-08-07T02:00:12.725Z,0.24
2022-08-07T02:03:12.670Z,0.22
2022-08-07T02:06:08.786Z,0.31
2022-08-07T02:09:05.722Z,0.19
2022-08-07T02:12:06.080Z,0.34
2022-08-07T02:15:05.969Z,0.33
2022-08-07T02:18:05.771Z,0.22
2022-08-07T02:21:06.260Z,0.27
2022-08-07T02:24:05.721Z,0.32
2022-08-07T02:27:05.707Z,0.31
2022-08-07T02:30:07.251Z,0.36
2022-08-07T02:33:09.332Z,0.22
2022-08-07T02:36:27.554Z,0.36
2022-08-07T02:39:09.400Z,0.21
2022-08-07T02:42:09.969Z,0.11
2022-08-07T02:45:07.338Z,0.15
2022-08-07T02:48:10.159Z,0.12
2022-08-07T02:51:05.755Z,0.1
2022-08-07T02:54:05.777Z,0.04
2022-08-07T02:57:06.503Z,0.25
2022-08-07T03:00:10.324Z,0.17
2022-08-07T03:03:05.917Z,0.08
2022-08-07T03:06:05.770Z,0.16
2022-08-07T03:09:05.740Z,0.28
2022-08-07T03:12:05.766Z,0.46
2022-08-07T03:15:07.655Z,0.45
2022-08-07T03:18:05.797Z,0.46
2022-08-07T03:21:08.352Z,0.48
2022-08-07T03:24:21.382Z,0.43
2022-08-07T03:27:05.797Z,0.45
2022-08-07T03:30:05.763Z,0.37
2022-08-07T03:33:07.990Z,0.48
2022-08-07T03:36:05.767Z,0.29
2022-08-07T03:39:05.868Z,0.27
2022-08-07T03:42:05.778Z,0.56
2022-08-07T03:45:05.805Z,0.4
2022-08-07T03:48:09.948Z,0.37
2022-08-07T03:51:05.772Z,0.39
2022-08-07T03:54:33.964Z,0.41
2022-08-07T03:57:07.289Z,0.36
2022-08-07T04:00:05.814Z,0.42
2022-08-07T04:03:05.779Z,0.42
2022-08-07T04:06:05.821Z,0.44
2022-08-07T04:09:05.819Z,0.37
2022-08-07T04:12:26.174Z,0.47
2022-08-07T04:15:05.814Z,0.49
2022-08-07T04:18:31.625Z,0.46
2022-08-07T04:21:07.172Z,0.48
2022-08-07T04:24:06.084Z,0.56
2022-08-07T04:27:05.842Z,0.3
2022-08-07T04:30:10.369Z,0.48
2022-08-07T04:33:07.334Z,0.48
2022-08-07T04:36:06.357Z,0.51
2022-08-07T04:39:05.837Z,0.53
2022-08-07T04:42:05.852Z,0.61
2022-08-07T04:45:07.966Z,0.56
2022-08-07T04:48:07.737Z,0.66
2022-08-07T04:51:05.868Z,0.71
2022-08-07T04:54:06.886Z,0.78
2022-08-07T04:58:08.386Z,0.37
2022-08-07T05:00:08.278Z,0.18
2022-08-07T05:03:16.679Z,0.08
2022-08-07T05:06:16.541Z,0.2
2022-08-07T05:09:06.224Z,0.54
2022-08-07T05:12:05.859Z,0.41
2022-08-07T05:15:05.895Z,0.76
2022-08-07T05:18:06.338Z,0.57
2022-08-07T05:21:05.873Z,0.58
2022-08-07T05:24:05.862Z,0.64
2022-08-07T05:27:05.893Z,0.34
2022-08-07T05:30:05.895Z,0.17
2022-08-07T05:33:05.894Z,0.22
2022-08-07T05:36:05.933Z,0.37
2022-08-07T05:39:08.706Z,0.38
2022-08-07T05:42:08.815Z,0.44
2022-08-07T05:45:14.964Z,0.36
2022-08-07T05:48:06.216Z,0.39
2022-08-07T05:51:05.944Z,0.28
2022-08-07T05:54:08.964Z,0.37
2022-08-07T05:57:05.932Z,0.56
2022-08-07T06:00:05.928Z,0.45
2022-08-07T06:03:05.928Z,0.57
2022-08-07T06:06:05.924Z,0.51
2022-08-07T06:09:05.939Z,0.73
2022-08-07T06:12:05.931Z,0.49
2022-08-07T06:15:06.035Z,0.59
2022-08-07T06:18:05.923Z,0.71
2022-08-07T06:22:12.419Z,0.36
2022-08-07T06:24:37.377Z,0.84
2022-08-07T06:27:05.944Z,0.68
2022-08-07T06:30:05.942Z,0.7
2022-08-07T06:33:09.848Z,0.95
2022-08-07T06:36:06.951Z,1.01
2022-08-07T06:40:13.781Z,0.85
2022-08-07T06:42:06.005Z,0.51
2022-08-07T06:45:05.966Z,0.75
2022-08-07T06:48:05.968Z,0.66
2022-08-07T06:51:08.097Z,1.09
2022-08-07T06:55:27.552Z,0.62
2022-08-07T06:57:06.010Z,0.52
2022-08-07T07:00:11.200Z,0.79
2022-08-07T07:03:08.985Z,0.87
2022-08-07T07:06:06.336Z,0.71
2022-08-07T07:09:05.982Z,0.97
2022-08-07T07:12:07.169Z,0.81
2022-08-07T07:15:08.564Z,1.27
2022-08-07T07:18:05.949Z,0.94
2022-08-07T07:21:06.012Z,1.22
2022-08-07T07:24:11.346Z,0.82
2022-08-07T07:27:05.977Z,0.98
2022-08-07T07:30:08.647Z,1.04
2022-08-07T07:33:06.014Z,1.17
2022-08-07T07:36:12.963Z,1.37
2022-08-07T07:39:05.991Z,1.12
2022-08-07T07:42:08.979Z,1.1
2022-08-07T07:45:05.989Z,0.86
2022-08-07T07:48:05.997Z,1.08
2022-08-07T07:51:07.649Z,0.86
2022-08-07T07:54:06.014Z,0.89
2022-08-07T07:57:05.994Z,1
2022-08-07T08:00:06.016Z,1.06
2022-08-07T08:03:07.874Z,0.96
2022-08-07T08:06:06.056Z,0.71
2022-08-07T08:09:06.055Z,0.6
2022-08-07T08:12:06.132Z,0.89
2022-08-07T08:18:17.754Z,1.26
2022-08-07T08:18:36.398Z,0.94
2022-08-07T08:21:07.516Z,1.1
2022-08-07T08:24:06.062Z,1.13
2022-08-07T08:27:09.293Z,0.99
2022-08-07T08:30:06.068Z,1.37
2022-08-07T08:33:06.050Z,0.91
2022-08-07T08:36:06.069Z,1.32
2022-08-07T08:39:06.541Z,0.91
2022-08-07T08:42:06.107Z,0.87
2022-08-07T08:45:06.047Z,0.86
2022-08-07T08:48:06.123Z,0.83
2022-08-07T08:51:14.395Z,1.25
2022-08-07T08:54:06.075Z,1.38
2022-08-07T08:57:06.122Z,1.21
2022-08-07T09:00:06.088Z,0.89
2022-08-07T09:03:07.616Z,1.73
2022-08-07T09:06:06.058Z,1.32
2022-08-07T09:09:09.495Z,1.49
2022-08-07T09:12:19.816Z,0.98
2022-08-07T09:16:20.908Z,1.52
2022-08-07T09:18:10.047Z,1.09
2022-08-07T09:21:06.100Z,0.82
2022-08-07T09:24:34.386Z,0.82
2022-08-07T09:27:09.214Z,0.81
2022-08-07T09:30:08.651Z,0.55
2022-08-07T09:33:16.324Z,0.85
2022-08-07T09:36:06.413Z,1.13
2022-08-07T09:39:06.403Z,0.94
2022-08-07T09:42:07.784Z,0.91
2022-08-07T09:46:28.522Z,0.62
2022-08-07T09:48:08.907Z,0.62
2022-08-07T09:51:14.705Z,0.54
2022-08-07T09:54:06.167Z,0.39
2022-08-07T09:57:06.133Z,0.63
2022-08-07T10:00:06.144Z,1.42
2022-08-07T10:03:08.004Z,1.38
2022-08-07T10:06:09.032Z,0.88
2022-08-07T10:09:06.117Z,0.98
2022-08-07T10:12:11.969Z,0.85
2022-08-07T10:15:06.318Z,0.92
2022-08-07T10:18:06.174Z,0.77
2022-08-07T10:21:08.716Z,0.91
2022-08-07T10:24:08.727Z,1.21
2022-08-07T10:27:06.780Z,0.72
2022-08-07T10:30:06.376Z,0.67
2022-08-07T10:33:06.178Z,0.93
2022-08-07T10:36:11.182Z,0.73
2022-08-07T10:39:06.207Z,0.91
2022-08-07T10:42:09.646Z,1.21
2022-08-07T10:45:06.222Z,1.06
2022-08-07T10:48:06.338Z,0.82
2022-08-07T10:51:06.202Z,0.77
2022-08-07T10:54:06.203Z,0.91
2022-08-07T10:57:06.174Z,1.05
2022-08-07T11:00:06.220Z,1.16
2022-08-07T11:03:11.070Z,1.12
2022-08-07T11:06:06.237Z,1.27
2022-08-07T11:09:11.013Z,1.06
2022-08-07T11:12:06.179Z,0.59
2022-08-07T11:15:09.539Z,1.01
2022-08-07T11:18:06.247Z,0.54
2022-08-07T11:21:06.212Z,0.82
2022-08-07T11:24:06.232Z,1.15
2022-08-07T11:27:06.202Z,0.62
2022-08-07T11:30:10.404Z,0.77
2022-08-07T11:33:08.050Z,0.94
2022-08-07T11:36:09.999Z,1.23
2022-08-07T11:39:06.897Z,0.46
2022-08-07T11:42:06.252Z,0.91
2022-08-07T11:45:06.247Z,0.62
2022-08-07T11:48:13.963Z,0.92
2022-08-07T11:51:08.994Z,0.45
2022-08-07T11:54:10.131Z,0.62
2022-08-07T11:57:06.238Z,0.66
2022-08-07T12:00:08.566Z,0.59
2022-08-07T12:03:06.292Z,0.72
2022-08-07T12:06:36.646Z,0.36
2022-08-07T12:09:07.426Z,0.61
2022-08-07T12:12:08.925Z,0.86
2022-08-07T12:15:08.130Z,0.92
2022-08-07T12:18:08.091Z,0.84
2022-08-07T12:21:06.292Z,0.7
2022-08-07T12:24:12.165Z,1.13
2022-08-07T12:27:13.177Z,1.11
2022-08-07T12:30:06.302Z,0.94
2022-08-07T12:33:09.256Z,0.72
2022-08-07T12:36:06.282Z,0.9
2022-08-07T12:39:09.583Z,0.77
2022-08-07T12:42:07.109Z,1.17
2022-08-07T12:45:06.509Z,0.74
2022-08-07T12:48:13.294Z,0.7
2022-08-07T12:51:12.810Z,0.53
2022-08-07T12:54:36.312Z,0.41
2022-08-07T12:57:07.468Z,0.59
2022-08-07T13:00:06.312Z,0.42
2022-08-07T13:03:06.848Z,1.09
2022-08-07T13:06:17.177Z,0.84
2022-08-07T13:09:12.497Z,0.9
2022-08-07T13:12:10.018Z,0.7
2022-08-07T13:15:06.321Z,0.56
2022-08-07T13:18:06.333Z,0.72
2022-08-07T13:21:07.084Z,0.38
2022-08-07T13:24:06.314Z,0.64
2022-08-07T13:27:06.347Z,0.93
2022-08-07T13:30:06.298Z,1.14
2022-08-07T13:33:06.363Z,0.49
2022-08-07T13:36:06.306Z,0.68
2022-08-07T13:39:11.269Z,0.41
2022-08-07T13:42:06.388Z,0.52
2022-08-07T13:45:21.113Z,0.92
2022-08-07T13:48:08.602Z,0.79
2022-08-07T13:51:20.548Z,0.62
2022-08-07T13:54:06.418Z,0.94
2022-08-07T13:57:06.353Z,0.47
2022-08-07T14:00:06.368Z,0.52
2022-08-07T14:03:06.399Z,0.69
2022-08-07T14:06:06.362Z,0.44
2022-08-07T14:09:06.417Z,0.55
2022-08-07T14:12:07.486Z,0.6
2022-08-07T14:15:06.330Z,0.39
2022-08-07T14:18:13.315Z,0.76
2022-08-07T14:21:07.057Z,0.63
2022-08-07T14:24:06.390Z,1
2022-08-07T14:27:16.303Z,1.2
2022-08-07T14:33:06.382Z,0.82
2022-08-07T14:36:06.414Z,0.64
2022-08-07T14:39:06.473Z,0.83
2022-08-07T14:42:19.067Z,0.66
2022-08-07T14:45:22.096Z,0.92
2022-08-07T14:48:06.473Z,0.62
2022-08-07T14:51:06.448Z,0.59
2022-08-07T14:57:06.395Z,0.67
2022-08-07T15:00:07.050Z,0.51
2022-08-07T15:06:06.387Z,0.28
2022-08-07T15:09:30.994Z,0.66
2022-08-07T15:12:06.700Z,0.52
2022-08-07T15:15:07.286Z,1.35
2022-08-07T15:18:14.225Z,0.79
2022-08-07T15:21:07.903Z,0.65
2022-08-07T15:25:03.425Z,0.66
2022-08-07T15:27:06.454Z,0.29
2022-08-07T15:30:16.335Z,0.26
2022-08-07T15:33:19.262Z,0.52
2022-08-07T15:36:06.403Z,0.36
2022-08-07T15:39:10.371Z,0.45
2022-08-07T15:42:42.895Z,0.48
2022-08-07T15:45:09.391Z,0.67
2022-08-07T15:48:06.470Z,0.89
2022-08-07T15:51:08.361Z,1.02
2022-08-07T15:54:06.616Z,0.49
2022-08-07T15:57:06.444Z,0.22
2022-08-07T16:00:06.823Z,0.59
2022-08-07T16:03:06.482Z,0.79
2022-08-07T16:06:06.449Z,0.49
2022-08-07T16:09:07.579Z,0.31
2022-08-07T16:12:06.446Z,0.58
2022-08-07T16:15:06.544Z,0.5
2022-08-07T16:18:06.443Z,0.7
2022-08-07T16:21:44.362Z,0.57
2022-08-07T16:24:09.053Z,0.53
2022-08-07T16:27:14.280Z,0.47
2022-08-07T16:30:17.814Z,0.62
2022-08-07T16:34:01.284Z,0.39
2022-08-07T16:36:06.574Z,0.31
2022-08-07T16:39:06.521Z,0.69
2022-08-07T16:42:06.611Z,0.71
2022-08-07T16:45:14.519Z,0.3
2022-08-07T16:48:06.518Z,0.8
2022-08-07T16:51:13.728Z,0.37
2022-08-07T16:54:09.368Z,0.26
2022-08-07T16:57:06.504Z,0.51
2022-08-07T17:00:06.732Z,0.62
2022-08-07T17:03:06.563Z,0.7
2022-08-07T17:06:22.506Z,0.93
2022-08-07T17:09:10.057Z,1.11
2022-08-07T17:12:33.734Z,0.4
2022-08-07T17:15:08.999Z,0.46
2022-08-07T17:18:06.548Z,0.46
2022-08-07T17:21:18.378Z,0.49
2022-08-07T17:24:06.523Z,0.12
2022-08-07T17:27:06.579Z,0.49
2022-08-07T17:30:13.631Z,0.47
2022-08-07T17:34:08.220Z,0.79
2022-08-07T17:36:12.130Z,0.64
2022-08-07T17:39:10.294Z,0.48
2022-08-07T17:42:07.059Z,0.24
2022-08-07T17:45:06.533Z,0.1
2022-08-07T17:48:06.574Z,0.21
2022-08-07T17:51:06.604Z,1.13
2022-08-07T17:54:11.368Z,1.32
2022-08-07T17:57:18.397Z,1.27
2022-08-07T18:00:06.591Z,0.81
2022-08-07T18:03:09.152Z,0.6
2022-08-07T18:06:09.474Z,0.43
2022-08-07T18:09:08.576Z,0.66
2022-08-07T18:12:19.278Z,0.31
2022-08-07T18:15:08.562Z,0.49
2022-08-07T18:18:36.735Z,0.48
2022-08-07T18:21:29.716Z,0.31
2022-08-07T18:24:06.933Z,0.6
2022-08-07T18:27:06.591Z,0.53
2022-08-07T18:30:32.109Z,0.44
2022-08-07T18:33:11.085Z,0.54
2022-08-07T18:36:08.073Z,0.42
2022-08-07T18:40:05.851Z,0.55
2022-08-07T18:42:06.653Z,0.34
2022-08-07T18:45:40.514Z,0.07
2022-08-07T18:48:06.614Z,0.04
2022-08-07T18:51:06.665Z,0
2022-08-07T18:54:06.633Z,0.14
2022-08-07T18:57:29.263Z,0.16
2022-08-07T19:00:33.591Z,0.08
2022-08-07T19:03:11.753Z,0.19
2022-08-07T19:06:06.664Z,0.06
2022-08-07T19:09:09.205Z,0.25
2022-08-07T19:12:07.105Z,0.11
2022-08-07T19:15:23.030Z,0.2
2022-08-07T19:18:07.236Z,0.09
2022-08-07T19:21:08.725Z,0.22
2022-08-07T19:24:06.709Z,0.21
2022-08-07T19:28:31.132Z,0.28
2022-08-07T19:30:59.639Z,0.28
2022-08-07T19:33:08.180Z,0.36
2022-08-07T19:36:08.642Z,0.46
2022-08-07T19:39:08.993Z,0.38
2022-08-07T19:42:08.618Z,0.36
2022-08-07T19:45:08.057Z,0.45
2022-08-07T19:48:06.679Z,0.37
2022-08-07T19:51:19.761Z,0.26
2022-08-07T19:54:30.635Z,0.2
2022-08-07T19:57:51.076Z,0.18
2022-08-07T20:00:08.719Z,0.24
2022-08-07T20:03:32.766Z,0.32
2022-08-07T20:06:06.721Z,0.38
2022-08-07T20:09:06.668Z,0.27
2022-08-07T20:12:23.475Z,0.1
2022-08-07T20:15:09.635Z,0.21
2022-08-07T20:18:06.715Z,0.43
2022-08-07T20:21:14.670Z,0.17
2022-08-07T20:24:06.686Z,0.34
2022-08-07T20:27:07.441Z,0.31
2022-08-07T20:30:10.892Z,0.3
2022-08-07T20:33:08.878Z,0.41
2022-08-07T20:36:06.705Z,0.25
2022-08-07T20:39:11.754Z,0.55
2022-08-07T20:42:06.686Z,0.4
2022-08-07T20:45:32.361Z,0.25
2022-08-07T20:48:06.745Z,0.25
2022-08-07T20:51:09.483Z,0.32
2022-08-07T20:54:08.737Z,0.33
2022-08-07T20:57:06.897Z,0.52
2022-08-07T21:00:09.335Z,0.32
2022-08-07T21:03:06.849Z,0.29
2022-08-07T21:06:12.289Z,0.28
2022-08-07T21:09:07.444Z,0.19
2022-08-07T21:12:06.774Z,0.1
2022-08-07T21:15:06.751Z,0.05
2022-08-07T21:18:17.186Z,0
2022-08-07T21:21:06.749Z,0
2022-08-07T21:24:06.774Z,0.05
2022-08-07T21:27:07.058Z,0
2022-08-07T21:30:06.762Z,0.07
2022-08-07T21:33:06.876Z,0.28
2022-08-07T21:36:11.785Z,0.26
2022-08-07T21:39:45.707Z,0.36
2022-08-07T21:42:10.832Z,0.07
2022-08-07T21:45:08.330Z,0.01
2022-08-07T21:48:06.751Z,0
2022-08-07T21:51:06.769Z,0.13
2022-08-07T21:54:06.787Z,0
2022-08-07T21:57:06.827Z,0.01
2022-08-07T22:00:07.404Z,0
2022-08-07T22:03:06.939Z,0.16
2022-08-07T22:06:07.774Z,0.24
2022-08-07T22:09:07.325Z,0.3
2022-08-07T22:12:07.468Z,0.03
2022-08-07T22:16:35.503Z,0
2022-08-07T22:18:06.843Z,0
2022-08-07T22:21:06.850Z,0.07
2022-08-07T22:24:06.795Z,0.13
2022-08-07T22:27:06.895Z,0.03
2022-08-07T22:30:12.194Z,0
2022-08-07T22:33:06.807Z,0
2022-08-07T22:36:07.791Z,0
2022-08-07T22:39:06.911Z,0
2022-08-07T22:42:10.710Z,0.06
2022-08-07T22:45:10.881Z,0.12
2022-08-07T22:48:13.503Z,0
2022-08-07T22:51:06.852Z,0
2022-08-07T22:54:09.238Z,0.04
2022-08-07T22:57:06.875Z,0.08
2022-08-07T23:00:06.839Z,0.02
2022-08-07T23:03:09.108Z,0
2022-08-07T23:06:15.137Z,0
2022-08-07T23:10:01.318Z,0.01
2022-08-07T23:12:06.882Z,0
2022-08-07T23:15:06.842Z,0.13
2022-08-07T23:18:06.874Z,0.03
2022-08-07T23:21:06.885Z,0
2022-08-07T23:24:11.186Z,0
2022-08-07T23:27:07.737Z,0
2022-08-07T23:30:36.510Z,0
2022-08-07T23:34:24.790Z,0
2022-08-07T23:36:06.876Z,0
2022-08-07T23:39:08.467Z,0
2022-08-07T23:42:06.915Z,0
2022-08-07T23:45:06.842Z,0
2022-08-07T23:48:06.923Z,0
2022-08-07T23:51:12.304Z,0
2022-08-07T23:54:08.290Z,0
2022-08-07T23:57:08.922Z,0
